sensor_id;sensor_type;location;lat;lon;timestamp;pressure;altitude;pressure_sealevel;temperature;humidity
66801;BME280;53703;50.326;19.122;2023-01-29T00:02:56;99555.34;;;16.62;42.78
66801;BME280;53703;50.326;19.122;2023-01-29T00:05:40;99559.14;;;16.59;42.81
66801;BME280;53703;50.326;19.122;2023-01-29T00:08:35;99563.11;;;16.59;42.94
66801;BME280;53703;50.326;19.122;2023-01-29T00:11:18;99557.39;;;16.61;42.87
66801;BME280;53703;50.326;19.122;2023-01-29T00:14:12;99554.84;;;16.60;42.80
66801;BME280;53703;50.326;19.122;2023-01-29T00:17:06;99556.52;;;16.59;42.86
66801;BME280;53703;50.326;19.122;2023-01-29T00:20:01;99563.80;;;16.57;42.80
66801;BME280;53703;50.326;19.122;2023-01-29T00:22:55;99564.33;;;16.59;42.89
66801;BME280;53703;50.326;19.122;2023-01-29T00:25:49;99569.67;;;16.57;42.87
66801;BME280;53703;50.326;19.122;2023-01-29T00:28:43;99565.41;;;16.56;42.89
66801;BME280;53703;50.326;19.122;2023-01-29T00:31:37;99562.94;;;16.54;42.99
66801;BME280;53703;50.326;19.122;2023-01-29T00:34:31;99569.08;;;16.55;42.76
66801;BME280;53703;50.326;19.122;2023-01-29T00:37:25;99571.38;;;16.60;42.84
66801;BME280;53703;50.326;19.122;2023-01-29T00:40:19;99576.74;;;16.59;42.62
66801;BME280;53703;50.326;19.122;2023-01-29T00:43:13;99577.73;;;16.61;42.76
66801;BME280;53703;50.326;19.122;2023-01-29T00:46:24;99572.50;;;16.55;42.66
66801;BME280;53703;50.326;19.122;2023-01-29T00:49:18;99578.63;;;16.57;42.75
66801;BME280;53703;50.326;19.122;2023-01-29T00:52:12;99576.71;;;16.60;42.53
66801;BME280;53703;50.326;19.122;2023-01-29T00:55:18;99573.64;;;16.53;42.74
66801;BME280;53703;50.326;19.122;2023-01-29T00:57:55;99579.42;;;16.57;42.41
66801;BME280;53703;50.326;19.122;2023-01-29T01:00:49;99582.25;;;16.53;42.65
66801;BME280;53703;50.326;19.122;2023-01-29T01:03:43;99586.40;;;16.54;42.63
66801;BME280;53703;50.326;19.122;2023-01-29T01:06:39;99586.17;;;16.54;42.64
66801;BME280;53703;50.326;19.122;2023-01-29T01:09:35;99588.17;;;16.58;42.42
66801;BME280;53703;50.326;19.122;2023-01-29T01:12:46;99592.66;;;16.53;42.56
66801;BME280;53703;50.326;19.122;2023-01-29T01:15:42;99591.44;;;16.54;42.48
66801;BME280;53703;50.326;19.122;2023-01-29T01:18:36;99586.45;;;16.48;42.69
66801;BME280;53703;50.326;19.122;2023-01-29T01:21:30;99585.54;;;16.49;42.43
66801;BME280;53703;50.326;19.122;2023-01-29T01:24:27;99582.54;;;16.44;42.57
66801;BME280;53703;50.326;19.122;2023-01-29T01:27:21;99580.92;;;16.44;42.50
66801;BME280;53703;50.326;19.122;2023-01-29T01:30:16;99577.98;;;16.45;42.49
66801;BME280;53703;50.326;19.122;2023-01-29T01:33:10;99576.83;;;16.43;42.63
66801;BME280;53703;50.326;19.122;2023-01-29T01:36:06;99571.77;;;16.44;42.45
66801;BME280;53703;50.326;19.122;2023-01-29T01:39:01;99574.78;;;16.43;42.64
66801;BME280;53703;50.326;19.122;2023-01-29T01:41:55;99580.83;;;16.46;42.62
66801;BME280;53703;50.326;19.122;2023-01-29T01:44:57;99569.55;;;16.45;42.77
66801;BME280;53703;50.326;19.122;2023-01-29T01:47:56;99570.02;;;16.44;42.52
66801;BME280;53703;50.326;19.122;2023-01-29T01:50:54;99567.91;;;16.47;42.71
66801;BME280;53703;50.326;19.122;2023-01-29T01:53:58;99562.23;;;16.42;42.48
66801;BME280;53703;50.326;19.122;2023-01-29T01:56:58;99557.52;;;16.39;42.54
66801;BME280;53703;50.326;19.122;2023-01-29T02:00:07;99555.29;;;16.40;42.62
66801;BME280;53703;50.326;19.122;2023-01-29T02:03:03;99546.04;;;16.42;42.50
66801;BME280;53703;50.326;19.122;2023-01-29T02:06:14;99538.14;;;16.43;42.33
66801;BME280;53703;50.326;19.122;2023-01-29T02:09:31;99539.78;;;16.42;42.44
66801;BME280;53703;50.326;19.122;2023-01-29T02:12:27;99548.48;;;16.41;42.69
66801;BME280;53703;50.326;19.122;2023-01-29T02:15:22;99556.85;;;16.46;43.02
66801;BME280;53703;50.326;19.122;2023-01-29T02:18:18;99551.92;;;16.49;42.48
66801;BME280;53703;50.326;19.122;2023-01-29T02:21:47;99544.77;;;16.47;42.83
66801;BME280;53703;50.326;19.122;2023-01-29T02:25:01;99545.67;;;16.42;42.42
66801;BME280;53703;50.326;19.122;2023-01-29T02:28:32;99541.95;;;16.35;42.38
66801;BME280;53703;50.326;19.122;2023-01-29T02:31:36;99535.83;;;16.37;42.74
66801;BME280;53703;50.326;19.122;2023-01-29T02:34:43;99536.00;;;16.39;42.33
66801;BME280;53703;50.326;19.122;2023-01-29T02:38:05;99536.22;;;16.31;42.15
66801;BME280;53703;50.326;19.122;2023-01-29T02:41:12;99531.63;;;16.31;42.38
66801;BME280;53703;50.326;19.122;2023-01-29T02:44:13;99537.17;;;16.32;42.16
66801;BME280;53703;50.326;19.122;2023-01-29T02:47:15;99547.41;;;16.26;42.26
66801;BME280;53703;50.326;19.122;2023-01-29T02:50:18;99549.04;;;16.27;42.54
66801;BME280;53703;50.326;19.122;2023-01-29T02:53:17;99550.34;;;16.22;42.35
66801;BME280;53703;50.326;19.122;2023-01-29T02:56:15;99558.45;;;16.27;42.46
66801;BME280;53703;50.326;19.122;2023-01-29T02:59:24;99560.35;;;16.28;42.56
66801;BME280;53703;50.326;19.122;2023-01-29T03:02:32;99558.19;;;16.25;42.23
66801;BME280;53703;50.326;19.122;2023-01-29T03:05:34;99562.73;;;16.21;42.50
66801;BME280;53703;50.326;19.122;2023-01-29T03:08:34;99556.09;;;16.22;42.43
66801;BME280;53703;50.326;19.122;2023-01-29T03:11:40;99553.08;;;16.20;42.24
66801;BME280;53703;50.326;19.122;2023-01-29T03:14:38;99557.35;;;16.20;42.48
66801;BME280;53703;50.326;19.122;2023-01-29T03:17:55;99570.76;;;16.17;42.61
66801;BME280;53703;50.326;19.122;2023-01-29T03:20:54;99572.20;;;16.20;42.49
66801;BME280;53703;50.326;19.122;2023-01-29T03:23:49;99583.00;;;16.19;42.38
66801;BME280;53703;50.326;19.122;2023-01-29T03:27:08;99579.34;;;16.16;42.51
66801;BME280;53703;50.326;19.122;2023-01-29T03:30:21;99582.27;;;16.15;42.28
66801;BME280;53703;50.326;19.122;2023-01-29T03:33:44;99578.41;;;16.11;42.47
66801;BME280;53703;50.326;19.122;2023-01-29T03:36:45;99572.45;;;16.09;42.31
66801;BME280;53703;50.326;19.122;2023-01-29T03:39:47;99570.50;;;16.04;42.63
66801;BME280;53703;50.326;19.122;2023-01-29T03:42:55;99568.73;;;16.06;42.48
66801;BME280;53703;50.326;19.122;2023-01-29T03:46:02;99570.84;;;16.05;42.35
66801;BME280;53703;50.326;19.122;2023-01-29T03:49:02;99567.42;;;16.03;42.45
66801;BME280;53703;50.326;19.122;2023-01-29T03:52:18;99562.00;;;16.06;42.57
66801;BME280;53703;50.326;19.122;2023-01-29T03:55:18;99555.20;;;16.01;42.52
66801;BME280;53703;50.326;19.122;2023-01-29T03:58:22;99550.25;;;16.03;42.35
66801;BME280;53703;50.326;19.122;2023-01-29T04:01:17;99551.04;;;16.00;42.45
66801;BME280;53703;50.326;19.122;2023-01-29T04:04:16;99548.56;;;16.02;42.61
66801;BME280;53703;50.326;19.122;2023-01-29T04:07:15;99552.88;;;16.02;42.24
66801;BME280;53703;50.326;19.122;2023-01-29T04:10:14;99549.19;;;15.99;42.42
66801;BME280;53703;50.326;19.122;2023-01-29T04:13:12;99555.98;;;15.90;42.55
66801;BME280;53703;50.326;19.122;2023-01-29T04:16:13;99555.31;;;15.88;42.54
66801;BME280;53703;50.326;19.122;2023-01-29T04:19:08;99553.17;;;15.95;42.70
66801;BME280;53703;50.326;19.122;2023-01-29T04:22:06;99552.84;;;15.91;42.61
66801;BME280;53703;50.326;19.122;2023-01-29T04:25:01;99539.89;;;15.88;42.82
66801;BME280;53703;50.326;19.122;2023-01-29T04:28:12;99536.70;;;15.86;42.88
66801;BME280;53703;50.326;19.122;2023-01-29T04:31:12;99527.27;;;15.87;42.67
66801;BME280;53703;50.326;19.122;2023-01-29T04:34:15;99516.40;;;15.86;42.64
66801;BME280;53703;50.326;19.122;2023-01-29T04:37:19;99509.02;;;15.81;42.56
66801;BME280;53703;50.326;19.122;2023-01-29T04:40:22;99506.23;;;15.81;42.87
66801;BME280;53703;50.326;19.122;2023-01-29T04:43:05;99504.29;;;15.86;42.91
66801;BME280;53703;50.326;19.122;2023-01-29T04:46:11;99505.51;;;15.79;42.64
66801;BME280;53703;50.326;19.122;2023-01-29T04:49:20;99493.94;;;15.77;42.85
66801;BME280;53703;50.326;19.122;2023-01-29T04:52:26;99482.48;;;15.71;42.69
66801;BME280;53703;50.326;19.122;2023-01-29T04:55:34;99481.59;;;15.71;42.76
66801;BME280;53703;50.326;19.122;2023-01-29T04:58:34;99477.83;;;15.70;42.81
66801;BME280;53703;50.326;19.122;2023-01-29T05:01:31;99479.24;;;15.68;42.54
66801;BME280;53703;50.326;19.122;2023-01-29T05:04:19;99480.86;;;15.67;42.46
66801;BME280;53703;50.326;19.122;2023-01-29T05:07:18;99490.36;;;15.65;42.57
66801;BME280;53703;50.326;19.122;2023-01-29T05:10:16;99489.22;;;15.63;42.58
66801;BME280;53703;50.326;19.122;2023-01-29T05:13:14;99488.49;;;15.61;42.64
66801;BME280;53703;50.326;19.122;2023-01-29T05:16:11;99492.11;;;15.61;42.56
66801;BME280;53703;50.326;19.122;2023-01-29T05:19:17;99495.30;;;15.62;42.44
66801;BME280;53703;50.326;19.122;2023-01-29T05:22:12;99496.80;;;15.63;42.44
66801;BME280;53703;50.326;19.122;2023-01-29T05:25:21;99501.83;;;15.60;42.59
66801;BME280;53703;50.326;19.122;2023-01-29T05:28:15;99504.45;;;15.58;42.75
66801;BME280;53703;50.326;19.122;2023-01-29T05:31:09;99504.48;;;15.53;42.45
66801;BME280;53703;50.326;19.122;2023-01-29T05:34:03;99509.45;;;15.50;42.69
66801;BME280;53703;50.326;19.122;2023-01-29T05:36:57;99506.29;;;15.49;42.74
66801;BME280;53703;50.326;19.122;2023-01-29T05:39:36;99502.36;;;15.47;42.78
66801;BME280;53703;50.326;19.122;2023-01-29T05:42:29;99490.89;;;15.51;43.00
66801;BME280;53703;50.326;19.122;2023-01-29T05:45:23;99499.50;;;15.45;43.72
66801;BME280;53703;50.326;19.122;2023-01-29T05:48:17;99500.23;;;15.42;43.83
66801;BME280;53703;50.326;19.122;2023-01-29T05:51:11;99503.00;;;15.50;43.85
66801;BME280;53703;50.326;19.122;2023-01-29T05:54:05;99502.52;;;15.43;43.96
66801;BME280;53703;50.326;19.122;2023-01-29T05:56:59;99507.70;;;15.51;44.56
66801;BME280;53703;50.326;19.122;2023-01-29T05:59:52;99509.23;;;15.50;44.16
66801;BME280;53703;50.326;19.122;2023-01-29T06:02:46;99501.38;;;15.49;43.68
66801;BME280;53703;50.326;19.122;2023-01-29T06:05:41;99510.36;;;15.44;43.62
66801;BME280;53703;50.326;19.122;2023-01-29T06:08:34;99510.83;;;15.42;43.45
66801;BME280;53703;50.326;19.122;2023-01-29T06:11:28;99507.52;;;15.40;43.25
66801;BME280;53703;50.326;19.122;2023-01-29T06:14:22;99514.07;;;15.38;43.38
66801;BME280;53703;50.326;19.122;2023-01-29T06:17:19;99508.08;;;15.37;43.25
66801;BME280;53703;50.326;19.122;2023-01-29T06:19:55;99512.36;;;15.35;43.09
66801;BME280;53703;50.326;19.122;2023-01-29T06:22:49;99511.63;;;15.39;43.10
66801;BME280;53703;50.326;19.122;2023-01-29T06:25:42;99514.23;;;15.41;43.33
66801;BME280;53703;50.326;19.122;2023-01-29T06:28:36;99518.16;;;15.39;43.11
66801;BME280;53703;50.326;19.122;2023-01-29T06:31:30;99522.88;;;15.35;42.99
66801;BME280;53703;50.326;19.122;2023-01-29T06:34:30;99522.67;;;15.34;42.97
66801;BME280;53703;50.326;19.122;2023-01-29T06:37:24;99523.13;;;15.35;42.90
66801;BME280;53703;50.326;19.122;2023-01-29T06:40:19;99516.96;;;15.29;42.95
66801;BME280;53703;50.326;19.122;2023-01-29T06:43:13;99513.95;;;15.28;42.86
66801;BME280;53703;50.326;19.122;2023-01-29T06:46:09;99504.59;;;15.27;42.86
66801;BME280;53703;50.326;19.122;2023-01-29T06:49:04;99502.98;;;15.27;43.02
66801;BME280;53703;50.326;19.122;2023-01-29T06:51:58;99505.46;;;15.27;43.07
66801;BME280;53703;50.326;19.122;2023-01-29T06:54:52;99508.84;;;15.24;43.07
66801;BME280;53703;50.326;19.122;2023-01-29T06:57:46;99512.19;;;15.22;43.21
66801;BME280;53703;50.326;19.122;2023-01-29T07:00:40;99514.19;;;15.25;43.04
66801;BME280;53703;50.326;19.122;2023-01-29T07:03:34;99510.56;;;15.22;43.10
66801;BME280;53703;50.326;19.122;2023-01-29T07:06:31;99512.87;;;15.23;43.41
66801;BME280;53703;50.326;19.122;2023-01-29T07:09:24;99519.02;;;15.23;42.98
66801;BME280;53703;50.326;19.122;2023-01-29T07:12:18;99522.98;;;15.23;43.42
66801;BME280;53703;50.326;19.122;2023-01-29T07:15:13;99519.79;;;15.19;43.46
66801;BME280;53703;50.326;19.122;2023-01-29T07:18:11;99516.96;;;15.17;43.59
66801;BME280;53703;50.326;19.122;2023-01-29T07:21:07;99522.65;;;15.16;43.54
66801;BME280;53703;50.326;19.122;2023-01-29T07:24:01;99532.90;;;15.17;43.58
66801;BME280;53703;50.326;19.122;2023-01-29T07:26:55;99532.48;;;15.11;43.58
66801;BME280;53703;50.326;19.122;2023-01-29T07:29:48;99538.45;;;15.12;43.71
66801;BME280;53703;50.326;19.122;2023-01-29T07:32:42;99537.14;;;15.09;43.70
66801;BME280;53703;50.326;19.122;2023-01-29T07:35:38;99535.30;;;15.07;43.61
66801;BME280;53703;50.326;19.122;2023-01-29T07:38:33;99536.45;;;15.02;43.52
66801;BME280;53703;50.326;19.122;2023-01-29T07:41:26;99547.10;;;15.01;43.82
66801;BME280;53703;50.326;19.122;2023-01-29T07:44:20;99546.81;;;15.01;44.05
66801;BME280;53703;50.326;19.122;2023-01-29T07:47:05;99542.45;;;15.05;44.08
66801;BME280;53703;50.326;19.122;2023-01-29T07:49:58;99539.80;;;15.06;43.66
66801;BME280;53703;50.326;19.122;2023-01-29T07:52:54;99545.52;;;15.06;44.05
66801;BME280;53703;50.326;19.122;2023-01-29T07:55:47;99551.98;;;15.07;44.38
66801;BME280;53703;50.326;19.122;2023-01-29T07:58:41;99555.76;;;15.08;44.17
66801;BME280;53703;50.326;19.122;2023-01-29T08:01:35;99563.93;;;15.11;44.86
66801;BME280;53703;50.326;19.122;2023-01-29T08:04:29;99569.21;;;15.08;45.05
66801;BME280;53703;50.326;19.122;2023-01-29T08:07:23;99569.32;;;15.06;44.93
66801;BME280;53703;50.326;19.122;2023-01-29T08:10:17;99574.06;;;15.05;44.71
66801;BME280;53703;50.326;19.122;2023-01-29T08:13:11;99578.89;;;15.06;44.67
66801;BME280;53703;50.326;19.122;2023-01-29T08:16:06;99578.69;;;14.99;44.46
66801;BME280;53703;50.326;19.122;2023-01-29T08:19:01;99586.41;;;14.98;44.86
66801;BME280;53703;50.326;19.122;2023-01-29T08:21:55;99581.36;;;14.95;44.94
66801;BME280;53703;50.326;19.122;2023-01-29T08:24:49;99583.33;;;14.96;44.65
66801;BME280;53703;50.326;19.122;2023-01-29T08:27:51;99584.51;;;14.94;44.76
66801;BME280;53703;50.326;19.122;2023-01-29T08:30:45;99578.04;;;14.91;44.72
66801;BME280;53703;50.326;19.122;2023-01-29T08:33:38;99585.33;;;14.92;44.72
66801;BME280;53703;50.326;19.122;2023-01-29T08:36:32;99589.52;;;14.91;44.78
66801;BME280;53703;50.326;19.122;2023-01-29T08:39:27;99586.59;;;14.89;44.19
66801;BME280;53703;50.326;19.122;2023-01-29T08:42:21;99594.92;;;14.86;44.53
66801;BME280;53703;50.326;19.122;2023-01-29T08:45:15;99588.93;;;14.84;44.37
66801;BME280;53703;50.326;19.122;2023-01-29T08:48:10;99592.48;;;14.83;44.48
66801;BME280;53703;50.326;19.122;2023-01-29T08:51:04;99593.65;;;14.82;44.23
66801;BME280;53703;50.326;19.122;2023-01-29T08:53:59;99596.55;;;14.83;44.76
66801;BME280;53703;50.326;19.122;2023-01-29T08:56:52;99591.03;;;14.79;44.71
66801;BME280;53703;50.326;19.122;2023-01-29T08:59:46;99588.06;;;14.79;44.19
66801;BME280;53703;50.326;19.122;2023-01-29T09:02:41;99586.47;;;14.75;43.98
66801;BME280;53703;50.326;19.122;2023-01-29T09:05:36;99586.39;;;14.73;44.45
66801;BME280;53703;50.326;19.122;2023-01-29T09:08:30;99572.41;;;14.92;45.17
66801;BME280;53703;50.326;19.122;2023-01-29T09:11:24;99563.11;;;14.92;44.29
66801;BME280;53703;50.326;19.122;2023-01-29T09:14:18;99558.72;;;14.89;44.64
66801;BME280;53703;50.326;19.122;2023-01-29T09:17:12;99544.30;;;14.84;44.52
66801;BME280;53703;50.326;19.122;2023-01-29T09:20:08;99546.02;;;12.11;41.13
66801;BME280;53703;50.326;19.122;2023-01-29T09:23:05;99544.48;;;11.58;44.54
66801;BME280;53703;50.326;19.122;2023-01-29T09:25:59;99548.22;;;14.07;41.78
66801;BME280;53703;50.326;19.122;2023-01-29T09:28:53;99552.36;;;14.47;41.53
66801;BME280;53703;50.326;19.122;2023-01-29T09:31:47;99556.30;;;14.59;41.44
66801;BME280;53703;50.326;19.122;2023-01-29T09:34:24;99558.89;;;14.62;41.96
66801;BME280;53703;50.326;19.122;2023-01-29T09:37:18;99553.67;;;14.70;44.52
66801;BME280;53703;50.326;19.122;2023-01-29T09:40:23;99557.38;;;14.60;46.41
66801;BME280;53703;50.326;19.122;2023-01-29T09:43:21;99562.89;;;14.10;47.39
66801;BME280;53703;50.326;19.122;2023-01-29T09:46:22;99560.84;;;14.34;47.80
66801;BME280;53703;50.326;19.122;2023-01-29T09:49:27;99559.73;;;14.43;47.74
66801;BME280;53703;50.326;19.122;2023-01-29T09:52:27;99555.92;;;12.30;46.04
66801;BME280;53703;50.326;19.122;2023-01-29T09:55:27;99549.94;;;10.33;46.52
66801;BME280;53703;50.326;19.122;2023-01-29T09:58:29;99545.11;;;13.20;44.17
66801;BME280;53703;50.326;19.122;2023-01-29T10:01:30;99538.77;;;13.88;43.45
66801;BME280;53703;50.326;19.122;2023-01-29T10:04:54;99538.45;;;14.04;42.99
66801;BME280;53703;50.326;19.122;2023-01-29T10:08:15;99521.30;;;14.10;42.78
66801;BME280;53703;50.326;19.122;2023-01-29T10:11:22;99507.75;;;14.12;42.63
66801;BME280;53703;50.326;19.122;2023-01-29T10:14:32;99503.84;;;14.16;42.34
66801;BME280;53703;50.326;19.122;2023-01-29T10:17:46;99503.83;;;14.18;42.44
66801;BME280;53703;50.326;19.122;2023-01-29T10:21:06;99504.24;;;14.20;41.98
66801;BME280;53703;50.326;19.122;2023-01-29T10:24:19;99497.80;;;14.15;41.93
66801;BME280;53703;50.326;19.122;2023-01-29T10:27:19;99484.52;;;14.22;41.61
66801;BME280;53703;50.326;19.122;2023-01-29T10:30:44;99476.44;;;14.25;41.40
66801;BME280;53703;50.326;19.122;2023-01-29T10:33:42;99472.84;;;14.32;41.21
66801;BME280;53703;50.326;19.122;2023-01-29T10:36:55;99465.88;;;14.33;41.26
66801;BME280;53703;50.326;19.122;2023-01-29T10:39:49;99459.12;;;14.33;41.55
66801;BME280;53703;50.326;19.122;2023-01-29T10:42:46;99453.90;;;14.34;41.63
66801;BME280;53703;50.326;19.122;2023-01-29T10:45:48;99449.34;;;14.34;41.48
66801;BME280;53703;50.326;19.122;2023-01-29T10:48:58;99442.11;;;14.31;41.35
66801;BME280;53703;50.326;19.122;2023-01-29T10:52:07;99429.92;;;14.33;41.37
66801;BME280;53703;50.326;19.122;2023-01-29T10:55:17;99423.18;;;14.30;41.40
66801;BME280;53703;50.326;19.122;2023-01-29T10:58:24;99414.60;;;14.27;41.40
66801;BME280;53703;50.326;19.122;2023-01-29T11:01:22;99409.17;;;14.21;41.27
66801;BME280;53703;50.326;19.122;2023-01-29T11:04:18;99406.42;;;14.19;41.21
66801;BME280;53703;50.326;19.122;2023-01-29T11:07:13;99406.69;;;14.20;41.22
66801;BME280;53703;50.326;19.122;2023-01-29T11:10:15;99398.98;;;14.20;41.08
66801;BME280;53703;50.326;19.122;2023-01-29T11:13:14;99390.34;;;14.20;40.98
66801;BME280;53703;50.326;19.122;2023-01-29T11:16:10;99388.74;;;14.19;40.62
66801;BME280;53703;50.326;19.122;2023-01-29T11:19:04;99376.72;;;14.08;39.94
66801;BME280;53703;50.326;19.122;2023-01-29T11:22:00;99367.85;;;13.95;40.16
66801;BME280;53703;50.326;19.122;2023-01-29T11:25:16;99361.20;;;14.11;39.63
66801;BME280;53703;50.326;19.122;2023-01-29T11:27:55;99357.43;;;14.18;39.58
66801;BME280;53703;50.326;19.122;2023-01-29T11:30:50;99354.75;;;14.19;39.48
66801;BME280;53703;50.326;19.122;2023-01-29T11:33:45;99354.18;;;14.23;39.57
66801;BME280;53703;50.326;19.122;2023-01-29T11:36:40;99354.84;;;14.20;39.60
66801;BME280;53703;50.326;19.122;2023-01-29T11:39:34;99356.08;;;14.14;39.10
66801;BME280;53703;50.326;19.122;2023-01-29T11:42:48;99353.29;;;14.11;38.98
66801;BME280;53703;50.326;19.122;2023-01-29T11:45:46;99354.95;;;14.01;37.99
66801;BME280;53703;50.326;19.122;2023-01-29T11:48:47;99359.59;;;13.74;39.27
66801;BME280;53703;50.326;19.122;2023-01-29T11:51:43;99353.54;;;14.04;38.63
66801;BME280;53703;50.326;19.122;2023-01-29T11:54:59;99352.82;;;14.15;38.35
66801;BME280;53703;50.326;19.122;2023-01-29T11:58:05;99350.90;;;14.23;38.26
66801;BME280;53703;50.326;19.122;2023-01-29T12:01:00;99352.80;;;14.29;38.97
66801;BME280;53703;50.326;19.122;2023-01-29T12:03:54;99355.30;;;14.24;39.62
66801;BME280;53703;50.326;19.122;2023-01-29T12:06:50;99351.08;;;14.28;39.33
66801;BME280;53703;50.326;19.122;2023-01-29T12:09:53;99347.04;;;14.27;39.20
66801;BME280;53703;50.326;19.122;2023-01-29T12:12:47;99345.09;;;14.24;39.28
66801;BME280;53703;50.326;19.122;2023-01-29T12:15:42;99341.33;;;14.26;38.83
66801;BME280;53703;50.326;19.122;2023-01-29T12:18:40;99340.91;;;14.25;38.82
66801;BME280;53703;50.326;19.122;2023-01-29T12:21:42;99339.46;;;14.23;38.82
66801;BME280;53703;50.326;19.122;2023-01-29T12:24:42;99333.10;;;14.23;38.82
66801;BME280;53703;50.326;19.122;2023-01-29T12:27:50;99328.03;;;14.26;38.41
66801;BME280;53703;50.326;19.122;2023-01-29T12:30:58;99330.16;;;14.29;38.67
66801;BME280;53703;50.326;19.122;2023-01-29T12:34:04;99327.71;;;14.26;38.44
66801;BME280;53703;50.326;19.122;2023-01-29T12:37:29;99319.19;;;14.27;38.45
66801;BME280;53703;50.326;19.122;2023-01-29T12:40:33;99315.21;;;14.20;38.18
66801;BME280;53703;50.326;19.122;2023-01-29T12:43:37;99314.40;;;14.17;38.22
66801;BME280;53703;50.326;19.122;2023-01-29T12:46:36;99309.92;;;14.15;38.24
66801;BME280;53703;50.326;19.122;2023-01-29T12:49:39;99306.17;;;14.00;37.81
66801;BME280;53703;50.326;19.122;2023-01-29T12:52:41;99306.04;;;14.17;37.14
66801;BME280;53703;50.326;19.122;2023-01-29T12:55:42;99297.16;;;13.87;37.96
66801;BME280;53703;50.326;19.122;2023-01-29T12:58:42;99290.08;;;14.25;37.90
66801;BME280;53703;50.326;19.122;2023-01-29T13:01:43;99293.11;;;14.44;38.05
66801;BME280;53703;50.326;19.122;2023-01-29T13:04:37;99294.94;;;14.46;39.94
66801;BME280;53703;50.326;19.122;2023-01-29T13:07:56;99293.66;;;14.44;40.77
66801;BME280;53703;50.326;19.122;2023-01-29T13:10:53;99289.85;;;14.44;41.02
66801;BME280;53703;50.326;19.122;2023-01-29T13:13:55;99282.70;;;14.47;40.95
66801;BME280;53703;50.326;19.122;2023-01-29T13:16:53;99280.10;;;14.46;41.11
66801;BME280;53703;50.326;19.122;2023-01-29T13:19:51;99279.41;;;14.43;41.36
66801;BME280;53703;50.326;19.122;2023-01-29T13:22:46;99275.83;;;14.41;41.35
66801;BME280;53703;50.326;19.122;2023-01-29T13:25:41;99267.24;;;14.44;41.24
66801;BME280;53703;50.326;19.122;2023-01-29T13:28:36;99267.39;;;14.51;40.96
66801;BME280;53703;50.326;19.122;2023-01-29T13:31:33;99268.53;;;14.47;41.33
66801;BME280;53703;50.326;19.122;2023-01-29T13:34:32;99265.84;;;14.43;41.45
66801;BME280;53703;50.326;19.122;2023-01-29T13:37:31;99264.73;;;14.43;41.47
66801;BME280;53703;50.326;19.122;2023-01-29T13:40:30;99261.58;;;14.53;41.27
66801;BME280;53703;50.326;19.122;2023-01-29T13:43:27;99256.45;;;14.45;41.50
66801;BME280;53703;50.326;19.122;2023-01-29T13:46:26;99253.73;;;14.44;41.52
66801;BME280;53703;50.326;19.122;2023-01-29T13:49:33;99245.48;;;14.47;41.54
66801;BME280;53703;50.326;19.122;2023-01-29T13:52:37;99245.85;;;14.49;41.54
66801;BME280;53703;50.326;19.122;2023-01-29T13:55:36;99239.67;;;14.57;41.29
66801;BME280;53703;50.326;19.122;2023-01-29T14:02:23;99237.73;;;14.73;41.10
66801;BME280;53703;50.326;19.122;2023-01-29T14:05:59;99237.67;;;14.68;41.17
66801;BME280;53703;50.326;19.122;2023-01-29T14:08:53;99236.09;;;14.72;41.04
66801;BME280;53703;50.326;19.122;2023-01-29T14:11:50;99240.68;;;14.76;40.97
66801;BME280;53703;50.326;19.122;2023-01-29T14:15:24;99234.33;;;14.91;40.95
66801;BME280;53703;50.326;19.122;2023-01-29T14:18:24;99232.60;;;14.98;40.61
66801;BME280;53703;50.326;19.122;2023-01-29T14:21:25;99231.06;;;14.90;40.71
66801;BME280;53703;50.326;19.122;2023-01-29T14:24:22;99230.66;;;14.94;40.64
66801;BME280;53703;50.326;19.122;2023-01-29T14:27:23;99230.83;;;14.97;40.74
66801;BME280;53703;50.326;19.122;2023-01-29T14:30:19;99225.50;;;14.99;40.74
66801;BME280;53703;50.326;19.122;2023-01-29T14:33:30;99225.30;;;15.02;40.65
66801;BME280;53703;50.326;19.122;2023-01-29T14:36:27;99235.23;;;15.05;40.65
66801;BME280;53703;50.326;19.122;2023-01-29T14:39:30;99231.72;;;15.02;40.70
66801;BME280;53703;50.326;19.122;2023-01-29T14:42:27;99230.67;;;15.07;40.69
66801;BME280;53703;50.326;19.122;2023-01-29T14:45:29;99235.30;;;15.13;40.57
66801;BME280;53703;50.326;19.122;2023-01-29T14:48:39;99236.91;;;15.10;40.79
66801;BME280;53703;50.326;19.122;2023-01-29T14:51:42;99233.77;;;15.19;40.47
66801;BME280;53703;50.326;19.122;2023-01-29T14:54:37;99233.87;;;15.19;40.59
66801;BME280;53703;50.326;19.122;2023-01-29T14:57:33;99228.63;;;15.20;40.61
66801;BME280;53703;50.326;19.122;2023-01-29T15:00:31;99230.92;;;15.26;40.67
66801;BME280;53703;50.326;19.122;2023-01-29T15:03:41;99231.70;;;15.23;40.87
66801;BME280;53703;50.326;19.122;2023-01-29T15:06:41;99228.17;;;15.25;40.65
66801;BME280;53703;50.326;19.122;2023-01-29T15:09:43;99226.41;;;15.22;40.73
66801;BME280;53703;50.326;19.122;2023-01-29T15:12:46;99229.48;;;15.29;40.58
66801;BME280;53703;50.326;19.122;2023-01-29T15:15:46;99232.16;;;15.37;40.53
66801;BME280;53703;50.326;19.122;2023-01-29T15:18:44;99225.95;;;15.44;40.51
66801;BME280;53703;50.326;19.122;2023-01-29T15:21:38;99225.78;;;15.27;41.19
66801;BME280;53703;50.326;19.122;2023-01-29T15:24:32;99232.86;;;15.60;40.10
66801;BME280;53703;50.326;19.122;2023-01-29T15:27:26;99226.16;;;15.64;40.72
66801;BME280;53703;50.326;19.122;2023-01-29T15:30:30;99222.48;;;15.79;40.59
66801;BME280;53703;50.326;19.122;2023-01-29T15:33:25;99224.35;;;15.84;40.20
66801;BME280;53703;50.326;19.122;2023-01-29T15:36:22;99223.75;;;15.88;41.65
66801;BME280;53703;50.326;19.122;2023-01-29T15:39:22;99222.77;;;15.88;41.58
66801;BME280;53703;50.326;19.122;2023-01-29T15:42:17;99215.19;;;15.87;41.20